Richmond Airport

Airport
ICAO code: 
YRMD
IATA Code: 
RCM
Summary
ICAO Region: 
APAC
Territory: 
Location: 
Richmond, Queensland
Serving: 
Richmond
Elevation: 
676 ft
Coordinates: 
Aerial View: 
20° 42' 14.004" S, 143° 7' 0.012" E
Metar
Observation
YRMD 051900Z AUTO 20020KT 9999 // SCT064 BKN075 OVC092 22/18 Q1010
Station
Richmond Airport
Date/Time
2021-12-05 19:00:00
Wind direction
200°
Wind speed
20 kts
Lowest cloud amount
scattered clouds
Temperature
22°C
Dew point
18°C
Humidity
78%
QNH
1010 hPa
Weather condition
n/a

Richmond Airport is 3.2 km northwest of Richmond, Queensland, Australia.

Climatology

Temperate Marine climate/Oceanic climate (Köppen climate classification Cfb). Moderately cool summer and comparatively warm winter.

Runways

Designator Length Width Surface Rops
9/27 1524 30 ASP No/No
Airport map: 
Aerial View: 

SKYbrary Partners:

Safety knowledge contributed by: